createdAt,value
2018-12-15T00:01:06.479Z,43.30
2018-12-15T00:03:34.265Z,37.67
2018-12-15T00:06:01.756Z,39.13
2018-12-15T00:08:29.230Z,40.93
2018-12-15T00:10:56.711Z,43.07
2018-12-15T00:13:24.202Z,42.97
2018-12-15T00:15:51.933Z,40.57
2018-12-15T00:18:19.597Z,41.90
2018-12-15T00:20:47.095Z,42.10
2018-12-15T00:23:14.566Z,44.43
2018-12-15T00:25:42.066Z,43.27
2018-12-15T00:28:09.549Z,34.87
2018-12-15T00:30:37.216Z,42.30
2018-12-15T00:33:04.808Z,36.90
2018-12-15T00:35:32.306Z,41.33
2018-12-15T00:37:59.786Z,38.17
2018-12-15T00:40:27.270Z,34.13
2018-12-15T00:42:54.819Z,31.20
2018-12-15T00:45:22.306Z,38.37
2018-12-15T00:47:49.998Z,41.40
2018-12-15T00:50:17.528Z,36.60
2018-12-15T00:52:45.009Z,41.43
2018-12-15T00:55:12.507Z,42.17
2018-12-15T00:57:40.453Z,46.70
2018-12-15T01:00:08.069Z,44.77
2018-12-15T01:02:35.546Z,40.03
2018-12-15T01:05:03.089Z,42.50
2018-12-15T01:07:30.643Z,36.83
2018-12-15T01:09:58.485Z,45.13
2018-12-15T01:12:25.953Z,41.17
2018-12-15T01:14:53.432Z,44.07
2018-12-15T01:17:21.196Z,42.37
2018-12-15T01:19:48.689Z,44.93
2018-12-15T01:22:16.173Z,40.10
2018-12-15T01:24:43.624Z,46.43
2018-12-15T01:27:11.132Z,44.57
2018-12-15T01:29:38.714Z,39.47
2018-12-15T01:32:06.196Z,42.50
2018-12-15T01:34:33.678Z,37.03
2018-12-15T01:37:01.178Z,40.80
2018-12-15T01:39:28.655Z,37.93
2018-12-15T01:41:56.138Z,40.47
2018-12-15T01:44:23.612Z,40.43
2018-12-15T01:46:51.089Z,42.57
2018-12-15T01:49:18.571Z,40.50
2018-12-15T01:51:46.059Z,41.53
2018-12-15T01:54:13.547Z,37.53
2018-12-15T01:56:41.038Z,39.97
2018-12-15T01:59:08.536Z,39.50
2018-12-15T02:01:36.039Z,42.10
2018-12-15T02:04:03.573Z,43.97
2018-12-15T02:06:31.098Z,35.97
2018-12-15T02:08:58.566Z,40.63
2018-12-15T02:11:26.069Z,40.53
2018-12-15T02:13:53.544Z,42.20
2018-12-15T02:16:21.040Z,44.90
2018-12-15T02:18:48.507Z,41.47
2018-12-15T02:21:16.245Z,41.93
2018-12-15T02:23:43.710Z,46.23
2018-12-15T02:26:11.203Z,41.40
2018-12-15T02:28:39.639Z,44.37
2018-12-15T02:31:07.132Z,42.03
2018-12-15T02:33:34.606Z,40.53
2018-12-15T02:36:02.109Z,46.27
2018-12-15T02:38:29.589Z,45.97
2018-12-15T02:40:57.069Z,42.47
2018-12-15T02:43:25.334Z,49.80
2018-12-15T02:45:53.074Z,46.43
2018-12-15T02:48:20.550Z,47.67
2018-12-15T02:50:48.020Z,46.03
2018-12-15T02:53:15.512Z,43.70
2018-12-15T02:55:42.984Z,47.03
2018-12-15T02:58:10.496Z,41.43
2018-12-15T03:00:38.060Z,51.33
2018-12-15T03:03:05.605Z,48.50
2018-12-15T03:05:33.072Z,50.73
2018-12-15T03:08:00.582Z,51.70
2018-12-15T03:10:28.082Z,49.03
2018-12-15T03:12:55.627Z,51.03
2018-12-15T03:15:23.150Z,51.77
2018-12-15T03:17:51.310Z,48.27
2018-12-15T03:20:19.122Z,45.40
2018-12-15T03:22:46.605Z,45.53
2018-12-15T03:25:14.076Z,48.50
2018-12-15T03:27:41.563Z,57.33
2018-12-15T03:30:09.091Z,44.63
2018-12-15T03:32:36.584Z,54.63
2018-12-15T03:35:04.752Z,51.20
2018-12-15T03:37:32.217Z,50.37
2018-12-15T03:39:59.702Z,51.70
2018-12-15T03:42:27.193Z,57.93
2018-12-15T03:44:54.683Z,52.90
2018-12-15T03:47:22.281Z,54.10
2018-12-15T03:49:49.747Z,49.93
2018-12-15T03:52:17.239Z,55.27
2018-12-15T03:54:44.734Z,56.27
2018-12-15T03:57:12.214Z,55.60
2018-12-15T03:59:40.064Z,53.47
2018-12-15T04:02:07.800Z,59.00
2018-12-15T04:04:35.354Z,57.53
2018-12-15T04:07:02.829Z,52.13
2018-12-15T04:09:30.309Z,46.63
2018-12-15T04:11:57.781Z,56.50
2018-12-15T04:14:25.273Z,48.67
2018-12-15T04:16:52.745Z,60.17
2018-12-15T04:19:20.223Z,51.53
2018-12-15T04:21:47.711Z,51.63
2018-12-15T04:24:15.301Z,56.07
2018-12-15T04:26:43.824Z,49.63
2018-12-15T04:29:11.356Z,52.40
2018-12-15T04:31:39.508Z,55.47
2018-12-15T04:34:07.011Z,51.27
2018-12-15T04:36:34.492Z,52.83
2018-12-15T04:39:02.088Z,47.47
2018-12-15T04:41:30.034Z,57.97
2018-12-15T04:43:57.984Z,57.23
2018-12-15T04:46:25.444Z,46.07
2018-12-15T04:48:52.946Z,47.57
2018-12-15T04:51:20.407Z,47.00
2018-12-15T04:53:47.907Z,43.73
2018-12-15T04:56:16.390Z,53.70
2018-12-15T04:58:43.886Z,54.90
2018-12-15T05:01:11.717Z,46.97
2018-12-15T05:03:39.200Z,46.33
2018-12-15T05:06:06.677Z,49.30
2018-12-15T05:08:34.274Z,48.97
2018-12-15T05:11:01.738Z,45.37
2018-12-15T05:13:29.254Z,49.43
2018-12-15T05:15:56.742Z,43.33
2018-12-15T05:18:24.428Z,48.10
2018-12-15T05:20:51.911Z,43.63
2018-12-15T05:23:19.389Z,45.43
2018-12-15T05:25:47.143Z,48.23
2018-12-15T05:28:14.611Z,48.20
2018-12-15T05:30:42.113Z,40.53
2018-12-15T05:33:09.586Z,40.10
2018-12-15T05:35:37.081Z,41.03
2018-12-15T05:38:04.559Z,46.33
2018-12-15T05:40:32.442Z,46.23
2018-12-15T05:42:59.911Z,39.87
2018-12-15T05:45:27.405Z,39.50
2018-12-15T05:47:54.870Z,40.00
2018-12-15T05:50:22.355Z,37.23
2018-12-15T05:52:49.831Z,40.43
2018-12-15T05:55:17.322Z,41.13
2018-12-15T05:57:44.805Z,38.73
2018-12-15T06:00:12.838Z,43.87
2018-12-15T06:02:40.664Z,31.43
2018-12-15T06:05:09.050Z,39.03
2018-12-15T06:07:37.038Z,34.37
2018-12-15T06:10:05.246Z,36.73
2018-12-15T06:12:32.726Z,34.17
2018-12-15T06:15:00.516Z,33.07
2018-12-15T06:17:27.984Z,35.47
2018-12-15T06:19:56.334Z,33.70
2018-12-15T06:22:23.803Z,29.53
2018-12-15T06:24:51.292Z,32.57
2018-12-15T06:27:19.550Z,25.63
2018-12-15T06:29:47.549Z,32.30
2018-12-15T06:32:15.056Z,35.77
2018-12-15T06:34:42.543Z,33.03
2018-12-15T06:37:10.106Z,36.30
2018-12-15T06:39:37.572Z,30.97
2018-12-15T06:42:05.955Z,25.93
2018-12-15T06:44:33.431Z,27.80
2018-12-15T06:47:00.923Z,29.27
2018-12-15T06:49:28.553Z,29.17
2018-12-15T06:51:56.029Z,29.30
2018-12-15T06:54:24.501Z,21.43
2018-12-15T06:56:51.985Z,28.57
2018-12-15T06:59:19.472Z,29.23
2018-12-15T07:01:46.954Z,25.90
2018-12-15T07:04:14.433Z,29.47
2018-12-15T07:06:42.468Z,30.43
2018-12-15T07:09:09.942Z,26.23
2018-12-15T07:11:37.433Z,24.50
2018-12-15T07:14:05.230Z,21.87
2018-12-15T07:16:32.782Z,30.77
2018-12-15T07:19:00.311Z,23.20
2018-12-15T07:21:27.782Z,38.23
2018-12-15T07:23:55.294Z,26.87
2018-12-15T07:26:23.164Z,24.23
2018-12-15T07:28:51.424Z,24.13
2018-12-15T07:31:18.919Z,29.40
2018-12-15T07:33:46.533Z,23.70
2018-12-15T07:36:14.022Z,26.90
2018-12-15T07:38:41.497Z,28.77
2018-12-15T07:41:08.993Z,24.07
2018-12-15T07:43:36.473Z,24.83
2018-12-15T07:46:04.035Z,27.83
2018-12-15T07:48:31.527Z,27.77
2018-12-15T07:50:58.999Z,26.23
2018-12-15T07:53:26.521Z,28.17
2018-12-15T07:55:54.011Z,24.97
2018-12-15T07:58:22.665Z,24.80
2018-12-15T08:00:50.163Z,26.27
2018-12-15T08:03:18.583Z,28.67
2018-12-15T08:05:46.157Z,24.30
2018-12-15T08:08:13.654Z,25.70
2018-12-15T08:10:46.829Z,25.67
2018-12-15T08:13:16.290Z,32.50
2018-12-15T08:15:43.785Z,27.93
2018-12-15T08:18:11.258Z,32.33
2018-12-15T08:20:38.944Z,30.40
2018-12-15T08:23:06.419Z,35.00
2018-12-15T08:25:33.927Z,25.17
2018-12-15T08:28:01.393Z,25.17
2018-12-15T08:30:28.898Z,26.20
2018-12-15T08:32:56.465Z,26.70
2018-12-15T08:35:23.949Z,24.73
2018-12-15T08:37:51.462Z,27.97
2018-12-15T08:40:18.942Z,26.50
2018-12-15T08:42:46.435Z,26.73
2018-12-15T08:45:13.914Z,27.17
2018-12-15T08:47:41.519Z,25.73
2018-12-15T08:50:09.821Z,31.10
2018-12-15T08:52:37.332Z,28.63
2018-12-15T08:55:05.726Z,30.23
2018-12-15T08:57:33.219Z,25.33
2018-12-15T09:00:00.706Z,29.57
2018-12-15T09:02:28.219Z,21.40
2018-12-15T09:04:55.724Z,27.60
2018-12-15T09:07:23.470Z,28.73
2018-12-15T09:09:50.954Z,25.73
2018-12-15T09:12:18.430Z,25.77
2018-12-15T09:14:45.948Z,29.77
2018-12-15T09:17:13.435Z,32.50
2018-12-15T09:19:40.920Z,24.27
2018-12-15T09:22:11.374Z,25.67
2018-12-15T09:24:37.974Z,24.00
2018-12-15T09:27:06.364Z,24.67
2018-12-15T09:29:33.854Z,23.70
2018-12-15T09:32:02.251Z,27.17
2018-12-15T09:34:29.751Z,24.03
2018-12-15T09:36:57.252Z,24.17
2018-12-15T09:39:24.729Z,26.67
2018-12-15T09:41:52.215Z,26.50
2018-12-15T09:44:19.710Z,25.47
2018-12-15T09:46:47.176Z,27.53
2018-12-15T09:49:17.797Z,28.40
2018-12-15T09:51:44.148Z,31.87
2018-12-15T09:54:11.654Z,26.60
2018-12-15T09:56:39.338Z,26.70
2018-12-15T09:59:06.837Z,27.67
2018-12-15T10:01:34.306Z,30.63
2018-12-15T10:04:01.836Z,27.07
2018-12-15T10:06:29.311Z,28.93
2018-12-15T10:08:57.546Z,25.10
2018-12-15T10:11:25.046Z,27.27
2018-12-15T10:13:53.318Z,32.83
2018-12-15T10:16:20.890Z,27.70
2018-12-15T10:18:48.382Z,31.50
2018-12-15T10:21:15.843Z,27.73
2018-12-15T10:23:43.339Z,29.87
2018-12-15T10:26:10.830Z,27.27
2018-12-15T10:28:38.328Z,28.33
2018-12-15T10:31:11.432Z,29.03
2018-12-15T10:33:38.986Z,24.57
2018-12-15T10:36:06.514Z,26.10
2018-12-15T10:38:35.025Z,27.83
2018-12-15T10:41:02.510Z,28.07
2018-12-15T10:43:30.009Z,29.10
2018-12-15T10:45:57.489Z,23.97
2018-12-15T10:48:24.972Z,27.17
2018-12-15T10:50:52.470Z,27.60
2018-12-15T10:53:19.956Z,27.97
2018-12-15T10:55:47.441Z,25.07
2018-12-15T10:58:14.917Z,29.60
2018-12-15T11:00:48.184Z,26.57
2018-12-15T11:03:15.719Z,28.03
2018-12-15T11:05:43.215Z,26.67
2018-12-15T11:08:10.694Z,28.40
2018-12-15T11:10:38.195Z,30.87
2018-12-15T11:13:05.726Z,31.63
2018-12-15T11:15:33.201Z,28.20
2018-12-15T11:18:00.689Z,27.53
2018-12-15T11:20:28.199Z,30.77
2018-12-15T11:22:55.689Z,30.27
2018-12-15T11:25:23.182Z,30.40
2018-12-15T11:27:50.818Z,54.57
2018-12-15T11:30:18.310Z,28.90
2018-12-15T11:32:45.804Z,27.13
2018-12-15T11:35:14.170Z,33.40
2018-12-15T11:37:41.635Z,33.03
2018-12-15T11:40:09.134Z,31.70
2018-12-15T11:42:36.613Z,29.30
2018-12-15T11:45:05.238Z,29.53
2018-12-15T11:47:32.944Z,33.10
2018-12-15T11:50:00.422Z,29.53
2018-12-15T11:52:27.934Z,30.57
2018-12-15T11:54:55.423Z,27.33
2018-12-15T11:57:22.923Z,29.50
2018-12-15T11:59:50.415Z,30.07
2018-12-15T12:02:17.900Z,29.03
2018-12-15T12:04:45.372Z,26.13
2018-12-15T12:07:12.902Z,33.53
2018-12-15T12:09:40.368Z,29.43
2018-12-15T12:12:07.892Z,23.97
2018-12-15T12:14:35.505Z,29.97
2018-12-15T12:17:03.044Z,28.23
2018-12-15T12:19:30.525Z,27.40
2018-12-15T12:21:58.019Z,28.23
2018-12-15T12:24:25.524Z,31.23
2018-12-15T12:26:53.093Z,30.40
2018-12-15T12:29:20.588Z,32.43
2018-12-15T12:31:48.073Z,31.53
2018-12-15T12:34:15.546Z,32.50
2018-12-15T12:36:43.039Z,30.70
2018-12-15T12:39:10.505Z,28.57
2018-12-15T12:41:38.018Z,26.50
2018-12-15T12:44:05.503Z,38.13
2018-12-15T12:46:34.091Z,33.70
2018-12-15T12:49:01.562Z,29.10
2018-12-15T12:51:29.065Z,31.30
2018-12-15T12:53:56.567Z,26.57
2018-12-15T12:56:24.070Z,27.13
2018-12-15T12:58:51.549Z,29.80
2018-12-15T13:01:19.019Z,31.73
2018-12-15T13:03:46.509Z,31.90
2018-12-15T13:06:14.025Z,29.17
2018-12-15T13:08:41.555Z,33.37
2018-12-15T13:11:09.047Z,28.57
2018-12-15T13:13:36.535Z,31.87
2018-12-15T13:16:04.039Z,31.77
2018-12-15T13:18:31.542Z,23.13
2018-12-15T13:20:59.015Z,30.80
2018-12-15T13:23:26.495Z,32.47
2018-12-15T13:25:53.982Z,29.10
2018-12-15T13:28:21.467Z,31.60
2018-12-15T13:30:48.962Z,32.50
2018-12-15T13:33:32.148Z,30.97
2018-12-15T13:35:59.672Z,27.57
2018-12-15T13:38:27.155Z,36.50
2018-12-15T13:40:54.707Z,37.87
2018-12-15T13:43:22.200Z,37.00
2018-12-15T13:45:49.678Z,30.77
2018-12-15T13:48:17.193Z,38.27
2018-12-15T13:50:44.680Z,38.10
2018-12-15T13:53:12.148Z,33.13
2018-12-15T13:55:39.631Z,32.20
2018-12-15T13:58:07.294Z,31.97
2018-12-15T14:00:34.765Z,34.90
2018-12-15T14:03:02.250Z,37.50
2018-12-15T14:05:30.291Z,38.17
2018-12-15T14:07:57.819Z,36.77
2018-12-15T14:10:26.126Z,31.77
2018-12-15T14:12:53.617Z,30.17
2018-12-15T14:15:21.096Z,27.67
2018-12-15T14:17:49.453Z,35.03
2018-12-15T14:20:17.268Z,33.10
2018-12-15T14:22:44.744Z,32.57
2018-12-15T14:25:12.298Z,35.77
2018-12-15T14:27:40.571Z,36.73
2018-12-15T14:30:08.278Z,34.03
2018-12-15T14:32:36.361Z,33.37
2018-12-15T14:35:05.883Z,40.10
2018-12-15T14:37:33.358Z,32.87
2018-12-15T14:40:00.843Z,34.00
2018-12-15T14:42:28.323Z,33.00
2018-12-15T14:44:55.810Z,36.90
2018-12-15T14:47:23.499Z,35.80
2018-12-15T14:49:50.977Z,36.67
2018-12-15T14:52:18.530Z,31.53
2018-12-15T14:54:46.173Z,33.40
2018-12-15T14:57:15.597Z,37.87
2018-12-15T14:59:43.095Z,30.43
2018-12-15T15:02:11.812Z,35.60
2018-12-15T15:04:40.749Z,34.43
2018-12-15T15:07:10.088Z,36.43
2018-12-15T15:09:38.915Z,34.60
2018-12-15T15:12:08.407Z,38.80
2018-12-15T15:14:37.760Z,41.10
2018-12-15T15:17:06.115Z,35.93
2018-12-15T15:19:35.971Z,40.80
2018-12-15T15:22:04.743Z,39.40
2018-12-15T15:24:33.127Z,41.53
2018-12-15T15:27:01.964Z,40.60
2018-12-15T15:29:30.632Z,35.47
2018-12-15T15:31:59.213Z,36.77
2018-12-15T15:34:28.966Z,39.93
2018-12-15T15:36:57.350Z,40.70
2018-12-15T15:39:24.903Z,33.87
2018-12-15T15:41:52.382Z,37.57
2018-12-15T15:44:19.876Z,39.47
2018-12-15T15:46:47.476Z,38.47
2018-12-15T15:49:14.983Z,33.20
2018-12-15T15:51:42.476Z,35.80
2018-12-15T15:54:09.980Z,32.47
2018-12-15T15:56:37.443Z,39.33
2018-12-15T15:59:04.922Z,38.07
2018-12-15T16:01:32.405Z,41.77
2018-12-15T16:04:03.175Z,33.93
2018-12-15T16:06:31.952Z,35.33
2018-12-15T16:09:03.484Z,40.40
2018-12-15T16:11:32.756Z,39.27
2018-12-15T16:14:01.973Z,40.97
2018-12-15T16:16:34.282Z,42.33
2018-12-15T16:19:02.952Z,37.40
2018-12-15T16:21:33.736Z,37.57
2018-12-15T16:24:02.876Z,35.80
2018-12-15T16:26:32.195Z,41.17
2018-12-15T16:29:01.922Z,35.43
2018-12-15T16:31:33.041Z,32.33
2018-12-15T16:34:03.100Z,31.47
2018-12-15T16:36:32.205Z,34.37
2018-12-15T16:39:01.760Z,35.43
2018-12-15T16:41:31.038Z,35.33
2018-12-15T16:43:59.828Z,33.70
2018-12-15T16:46:30.142Z,32.90
2018-12-15T16:48:59.405Z,37.20
2018-12-15T16:51:30.310Z,36.93
2018-12-15T16:54:01.370Z,36.97
2018-12-15T16:56:32.082Z,33.57
2018-12-15T16:59:04.221Z,35.10
2018-12-15T17:01:37.741Z,35.90
2018-12-15T17:04:09.127Z,39.07
2018-12-15T17:06:38.660Z,38.67
2018-12-15T17:09:10.681Z,44.07
2018-12-15T17:11:41.265Z,36.17
2018-12-15T17:14:12.865Z,33.57
2018-12-15T17:16:43.403Z,37.23
2018-12-15T17:19:11.021Z,40.40
2018-12-15T17:21:40.741Z,35.80
2018-12-15T17:24:08.299Z,41.10
2018-12-15T17:26:35.845Z,33.67
2018-12-15T17:29:03.398Z,37.93
2018-12-15T17:31:30.902Z,40.40
2018-12-15T17:33:58.489Z,38.13
2018-12-15T17:36:25.983Z,35.77
2018-12-15T17:38:53.469Z,38.17
2018-12-15T17:41:20.966Z,36.63
2018-12-15T17:43:48.442Z,35.93
2018-12-15T17:46:15.992Z,35.37
2018-12-15T17:48:43.601Z,37.00
2018-12-15T17:51:11.150Z,35.27
2018-12-15T17:53:38.644Z,44.73
2018-12-15T17:56:06.126Z,38.53
2018-12-15T17:58:33.622Z,38.40
2018-12-15T18:01:01.108Z,42.77
2018-12-15T18:03:28.594Z,37.23
2018-12-15T18:05:56.081Z,37.27
2018-12-15T18:08:23.564Z,45.87
2018-12-15T18:10:51.050Z,36.63
2018-12-15T18:13:18.538Z,35.90
2018-12-15T18:15:46.154Z,36.90
2018-12-15T18:18:13.641Z,40.60
2018-12-15T18:20:58.495Z,35.13
2018-12-15T18:23:51.368Z,38.23
2018-12-15T18:26:20.631Z,35.37
2018-12-15T18:29:11.906Z,40.53
2018-12-15T18:31:41.796Z,38.80
2018-12-15T18:34:23.605Z,49.30
2018-12-15T18:36:57.049Z,41.67
2018-12-15T18:39:27.378Z,43.67
2018-12-15T18:42:10.980Z,40.73
2018-12-15T18:53:48.983Z,40.63
2018-12-15T18:56:16.467Z,34.00
2018-12-15T19:01:54.025Z,38.97
2018-12-15T19:04:23.664Z,41.60
2018-12-15T19:06:53.421Z,39.00
2018-12-15T19:09:20.975Z,36.40
2018-12-15T19:11:48.458Z,37.63
2018-12-15T19:14:15.967Z,35.80
2018-12-15T19:16:43.453Z,38.30
2018-12-15T19:19:10.998Z,42.73
2018-12-15T19:21:38.481Z,41.33
2018-12-15T19:24:05.979Z,36.53
2018-12-15T19:26:33.468Z,45.60
2018-12-15T19:29:00.970Z,43.40
2018-12-15T19:31:28.444Z,41.73
2018-12-15T19:33:55.922Z,43.40
2018-12-15T19:36:23.461Z,42.83
2018-12-15T19:38:50.960Z,42.83
2018-12-15T19:41:18.444Z,37.93
2018-12-15T19:43:45.944Z,40.77
2018-12-15T19:46:13.422Z,48.00
2018-12-15T19:48:40.910Z,43.27
2018-12-15T19:51:08.377Z,42.27
2018-12-15T19:53:35.882Z,38.37
2018-12-15T19:56:03.374Z,42.43
2018-12-15T19:58:30.994Z,49.07
2018-12-15T20:00:58.498Z,46.03
2018-12-15T20:03:26.122Z,61.43
2018-12-15T20:05:53.598Z,42.30
2018-12-15T20:08:21.073Z,43.07
2018-12-15T20:10:48.590Z,39.73
2018-12-15T20:13:16.091Z,43.77
2018-12-15T20:15:43.585Z,49.30
2018-12-15T20:18:11.087Z,44.83
2018-12-15T20:20:38.684Z,46.33
2018-12-15T20:23:06.243Z,42.97
2018-12-15T20:25:33.717Z,42.93
2018-12-15T20:28:01.414Z,39.23
2018-12-15T20:30:28.905Z,46.07
2018-12-15T20:32:56.377Z,46.70
2018-12-15T20:35:23.971Z,43.93
2018-12-15T20:37:51.470Z,43.07
2018-12-15T20:40:18.973Z,38.20
2018-12-15T20:42:46.469Z,41.27
2018-12-15T20:45:13.967Z,43.03
2018-12-15T20:47:42.375Z,37.90
2018-12-15T20:50:10.003Z,51.20
2018-12-15T20:52:37.497Z,42.03
2018-12-15T20:55:05.137Z,40.33
2018-12-15T20:57:33.577Z,45.13
2018-12-15T21:00:01.081Z,49.23
2018-12-15T21:02:28.566Z,41.50
2018-12-15T21:04:56.055Z,40.37
2018-12-15T21:07:23.571Z,50.23
2018-12-15T21:09:51.784Z,43.23
2018-12-15T21:12:19.299Z,44.73
2018-12-15T21:14:46.773Z,49.00
2018-12-15T21:17:14.261Z,38.67
2018-12-15T21:19:47.702Z,38.53
2018-12-15T21:22:11.310Z,43.47
2018-12-15T21:24:38.794Z,38.40
2018-12-15T21:27:06.746Z,34.70
2018-12-15T21:29:34.214Z,43.40
2018-12-15T21:32:01.764Z,41.80
2018-12-15T21:34:29.252Z,51.73
2018-12-15T21:36:56.736Z,41.77
2018-12-15T21:39:24.205Z,42.83
2018-12-15T21:41:51.706Z,46.03
2018-12-15T21:44:19.166Z,47.40
2018-12-15T21:46:46.678Z,46.53
2018-12-15T21:49:14.160Z,45.60
2018-12-15T21:51:41.657Z,50.43
2018-12-15T21:54:09.163Z,48.17
2018-12-15T21:56:38.123Z,44.70
2018-12-15T21:59:05.612Z,48.10
2018-12-15T22:01:33.105Z,55.37
2018-12-15T22:04:00.596Z,46.03
2018-12-15T22:06:29.224Z,38.83
2018-12-15T22:08:56.699Z,41.33
2018-12-15T22:11:24.197Z,48.07
2018-12-15T22:13:51.699Z,43.67
2018-12-15T22:16:19.685Z,46.73
2018-12-15T22:18:47.227Z,48.23
2018-12-15T22:21:14.707Z,43.87
2018-12-15T22:23:42.199Z,41.10
2018-12-15T22:26:09.676Z,38.40
2018-12-15T22:28:37.194Z,48.43
2018-12-15T22:31:04.679Z,42.20
2018-12-15T22:33:32.167Z,41.30
2018-12-15T22:35:59.692Z,42.03
2018-12-15T22:38:27.307Z,47.27
2018-12-15T22:40:54.883Z,39.47
2018-12-15T22:43:22.370Z,49.57
2018-12-15T22:45:49.848Z,42.80
2018-12-15T22:48:17.360Z,39.10
2018-12-15T22:50:44.850Z,43.97
2018-12-15T22:53:12.500Z,41.10
2018-12-15T22:55:39.984Z,48.33
2018-12-15T22:58:07.488Z,45.87
2018-12-15T23:03:37.703Z,40.70
2018-12-15T23:06:05.729Z,46.73
2018-12-15T23:08:33.737Z,48.50
2018-12-15T23:11:01.229Z,51.43
2018-12-15T23:13:28.725Z,54.33
2018-12-15T23:15:56.224Z,51.23
2018-12-15T23:18:24.419Z,47.23
2018-12-15T23:20:51.897Z,55.20
2018-12-15T23:23:19.439Z,62.17
2018-12-15T23:25:46.935Z,48.20
2018-12-15T23:28:15.609Z,60.13
2018-12-15T23:30:43.149Z,48.17
2018-12-15T23:33:10.652Z,44.67
2018-12-15T23:35:38.131Z,49.00
2018-12-15T23:38:05.634Z,48.13
2018-12-15T23:40:33.115Z,47.43
2018-12-15T23:43:00.571Z,44.40
2018-12-15T23:45:28.049Z,47.57
2018-12-15T23:47:55.597Z,52.50
2018-12-15T23:50:23.245Z,46.67
2018-12-15T23:52:50.737Z,53.47
2018-12-15T23:55:18.245Z,47.53
2018-12-15T23:57:45.935Z,51.03
